Achille, Oklahoma
Current Conditions -  °F | °C
As of 3:35 PM on Tuesday 25 Nov 2014 (Local Time) from KDUA Reporting Station
Clear Clear  
Wind Chill: 61°   Ceiling: Unl
Heat Index: 61°   Visibility: 10mi
Dew Point: 30°   Wind: 0mph
Humidity: 31%   Direction: NA
Pressure: 30.16"   Gusts: NA
Location:  33.83°N, 96.39°W
Report Text: KDUA 252135Z AUTO 00000KT 10SM CLR 16/M01 A3016 RMK AO2
Loading
Personal Weather Stations






























Interactive Weather Map New forecast layout! Learn more

10-Day Weather Forecast

Advertisements
Track Severe Weather on mobile